Wetterdaten: aktuell Freitag, 04.09.2026 14:55
Datum Zeit Arbeit-Z. Temp. A. Bod.+5cm Temp. A. min Temp. A. max Bl.Temp +1m BTemp -5cm BTemp -10cm BTemp -20cm BTemp -50cm Feuchte I. Feuchte A. BlattFeu +1m BFeucht -5cm BFeucht-10cm BFeucht-20cm BFeucht-50cm Luftdruck Regen Wind Richtung Richtung Sonnenschein ET UV Solar Taupunkt Windchill Windböen Empfang
04.09.2026 14:55 25,8 °C 31,5 °C 31,1 °C 31,5 °C 31,7 °C 25,0 °C 25,0 °C 21,7 °C 20,6 °C 20,6 °C 51 % 45 % 0 lf 200 cb 200 cb 200 cb 130 cb 1011,9 hPa 0,0 l/m² 7,5 km/h (2 Bft) N 355 ° 60 min 0,534 mm 3,8 UV-I 645 W/m² 18,1 °C 31,4 °C 19,3 km/h (3 Bft) 94,07 %
04.09.2026 13:55 25,8 °C 30,7 °C 29,4 °C 30,6 °C 30,8 °C 25,0 °C 25,0 °C 21,7 °C 20,6 °C 20,6 °C 51 % 48 % 0 lf 200 cb 200 cb 200 cb 130 cb 1012,6 hPa 0,0 l/m² 6,9 km/h (2 Bft) N-NW 327 ° 60 min 0,482 mm 4,4 UV-I 686 W/m² 18,4 °C 30,7 °C 20,9 km/h (4 Bft) 93,58 %
04.09.2026 12:55 25,7 °C 29,6 °C 27,8 °C 29,4 °C 29,6 °C 23,9 °C 23,9 °C 21,1 °C 20,6 °C 20,6 °C 50 % 49 % 0 lf 200 cb 200 cb 200 cb 130 cb 1013,6 hPa 0,0 l/m² 8,3 km/h (2 Bft) N-NW 341 ° 60 min 0,432 mm 4,3 UV-I 686 W/m² 17,7 °C 29,4 °C 29,0 km/h (5 Bft) 95,16 %
04.09.2026 11:55 25,7 °C 28,3 °C 26,7 °C 28,3 °C 28,4 °C 22,8 °C 22,8 °C 20,6 °C 20,6 °C 20,6 °C 51 % 55 % 0 lf 200 cb 200 cb 200 cb 130 cb 1014,6 hPa 0,0 l/m² 6,1 km/h (2 Bft) W-SW 248 ° 60 min 0,356 mm 3,7 UV-I 635 W/m² 18,4 °C 28,3 °C 14,5 km/h (3 Bft) 100,00 %
04.09.2026 10:55 25,4 °C 27,7 °C 26,1 °C 27,6 °C 27,7 °C 21,1 °C 21,1 °C 20,6 °C 20,6 °C 20,6 °C 52 % 55 % 0 lf 200 cb 200 cb 200 cb 130 cb 1014,9 hPa 0,0 l/m² 7,7 km/h (2 Bft) NW 304 ° 60 min 0,254 mm 2,6 UV-I 529 W/m² 17,8 °C 27,5 °C 19,3 km/h (3 Bft) 96,58 %
04.09.2026 09:55 25,1 °C 26,6 °C 25,0 °C 26,3 °C 26,6 °C 20,0 °C 20,0 °C 20,6 °C 20,6 °C 20,6 °C 52 % 59 % 0 lf 200 cb 200 cb 200 cb 130 cb 1015,1 hPa 0,0 l/m² 3,6 km/h (1 Bft) N-NW 328 ° 60 min 0,101 mm 1,6 UV-I 417 W/m² 17,9 °C 26,6 °C 8,0 km/h (2 Bft) 97,56 %
04.09.2026 08:55 25,0 °C 22,8 °C 22,2 °C 22,6 °C 22,8 °C 19,4 °C 19,4 °C 20,6 °C 20,6 °C 20,6 °C 51 % 68 % 0 lf 200 cb 200 cb 200 cb 130 cb 1015,7 hPa 0,0 l/m² 3,2 km/h (1 Bft) SO 143 ° 25 min 0,026 mm 0,7 UV-I 264 W/m² 16,6 °C 22,8 °C 9,7 km/h (2 Bft) 96,58 %
04.09.2026 07:55 25,1 °C 20,4 °C 18,9 °C 20,3 °C 20,4 °C 19,4 °C 19,4 °C 20,6 °C 20,6 °C 20,6 °C 49 % 73 % 0 lf 200 cb 200 cb 200 cb 130 cb 1015,9 hPa 0,0 l/m² 3,1 km/h (1 Bft) S 182 ° 0 min 0,000 mm 0,0 UV-I 19 W/m² 15,4 °C 20,4 °C 9,7 km/h (2 Bft) 94,87 %
04.09.2026 06:55 25,3 °C 19,8 °C 17,8 °C 19,8 °C 19,8 °C 20,0 °C 20,0 °C 21,1 °C 20,6 °C 20,6 °C 49 % 74 % 0 lf 200 cb 200 cb 200 cb 129 cb 1016,1 hPa 0,0 l/m² 1,9 km/h (1 Bft) S-SW 211 ° 0 min 0,025 mm 0,0 UV-I 0 W/m² 15,0 °C 19,8 °C 6,4 km/h (2 Bft) 96,58 %
04.09.2026 05:55 25,3 °C 19,8 °C 17,2 °C 19,8 °C 19,8 °C 20,0 °C 20,0 °C 21,1 °C 20,6 °C 20,6 °C 49 % 74 % 0 lf 200 cb 200 cb 200 cb 129 cb 1016,5 hPa 0,0 l/m² 0,7 km/h (0 Bft) SO 127 ° 0 min 0,025 mm 0,0 UV-I 0 W/m² 15,0 °C 19,8 °C 6,4 km/h (2 Bft) 90,18 %
04.09.2026 04:55 25,3 °C 20,2 °C 17,8 °C 20,1 °C 20,3 °C 20,0 °C 20,0 °C 21,1 °C 20,6 °C 20,6 °C 49 % 72 % 0 lf 200 cb 200 cb 200 cb 129 cb 1016,8 hPa 0,0 l/m² 0,0 km/h (0 Bft) SO 145 ° 0 min 0,026 mm 0,0 UV-I 0 W/m² 15,0 °C 20,2 °C 1,6 km/h (1 Bft) 95,83 %
04.09.2026 03:55 25,3 °C 19,5 °C 17,2 °C 19,3 °C 19,5 °C 20,6 °C 20,6 °C 21,1 °C 21,1 °C 20,6 °C 49 % 77 % 0 lf 200 cb 200 cb 200 cb 129 cb 1017,4 hPa 0,0 l/m² 0,3 km/h (0 Bft) W-SW 248 ° 0 min 0,025 mm 0,0 UV-I 0 W/m² 15,4 °C 19,5 °C 1,6 km/h (1 Bft) 95,00 %
04.09.2026 02:55 25,3 °C 19,7 °C 17,8 °C 19,5 °C 19,7 °C 20,6 °C 20,6 °C 21,1 °C 21,1 °C 20,6 °C 49 % 76 % 0 lf 200 cb 200 cb 200 cb 128 cb 1017,2 hPa 0,0 l/m² 0,3 km/h (0 Bft) O-SO 103 ° 0 min 0,026 mm 0,0 UV-I 0 W/m² 15,3 °C 19,7 °C 1,6 km/h (1 Bft) 94,17 %
04.09.2026 01:55 25,4 °C 20,2 °C 18,3 °C 20,2 °C 20,4 °C 21,1 °C 21,1 °C 21,7 °C 21,1 °C 20,6 °C 49 % 77 % 0 lf 200 cb 200 cb 200 cb 128 cb 1017,9 hPa 0,0 l/m² 0,0 km/h (0 Bft) SO 142 ° 0 min 0,025 mm 0,0 UV-I 0 W/m² 16,0 °C 20,2 °C 0,0 km/h (0 Bft) 96,40 %
04.09.2026 00:55 25,4 °C 22,1 °C 20,0 °C 22,1 °C 22,2 °C 21,1 °C 21,1 °C 21,7 °C 20,6 °C 20,6 °C 49 % 69 % 0 lf 200 cb 200 cb 200 cb 128 cb 1017,9 hPa 0,0 l/m² 0,7 km/h (0 Bft) O 94 ° 0 min 0,000 mm 0,0 UV-I 0 W/m² 16,1 °C 22,1 °C 4,8 km/h (1 Bft) 95,73 %
03.09.2026 23:55 25,4 °C 23,1 °C 21,1 °C 22,9 °C 23,1 °C 21,1 °C 21,1 °C 21,7 °C 20,6 °C 20,6 °C 49 % 65 % 0 lf 200 cb 200 cb 200 cb 128 cb 1018,4 hPa 0,0 l/m² 0,4 km/h (0 Bft) N-NW 327 ° 0 min 0,025 mm 0,0 UV-I 0 W/m² 16,2 °C 23,1 °C 3,2 km/h (1 Bft) 94,17 %
03.09.2026 22:55 25,4 °C 23,2 °C 21,1 °C 23,2 °C 23,2 °C 21,7 °C 21,7 °C 21,7 °C 20,6 °C 20,6 °C 49 % 67 % 0 lf 200 cb 200 cb 200 cb 128 cb 1018,1 hPa 0,0 l/m² 0,0 km/h (0 Bft) S 182 ° 0 min 0,051 mm 0,0 UV-I 0 W/m² 16,7 °C 23,2 °C 0,0 km/h (0 Bft) 97,39 %
03.09.2026 21:55 25,4 °C 23,6 °C 21,1 °C 23,5 °C 23,6 °C 21,7 °C 21,7 °C 21,7 °C 20,6 °C 20,0 °C 48 % 63 % 0 lf 200 cb 200 cb 200 cb 126 cb 1018,3 hPa 0,0 l/m² 0,7 km/h (0 Bft) S 182 ° 0 min 0,000 mm 0,0 UV-I 0 W/m² 16,1 °C 23,6 °C 3,2 km/h (1 Bft) 91,53 %
03.09.2026 20:55 25,4 °C 24,1 °C 21,7 °C 24,0 °C 24,1 °C 21,7 °C 21,7 °C 21,7 °C 20,6 °C 20,0 °C 48 % 63 % 0 lf 200 cb 200 cb 200 cb 126 cb 1018,0 hPa 0,0 l/m² 0,0 km/h (0 Bft) SO 124 ° 0 min 0,025 mm 0,0 UV-I 0 W/m² 16,6 °C 24,1 °C 0,0 km/h (0 Bft) 98,31 %
03.09.2026 19:55 25,4 °C 25,1 °C 22,8 °C 25,1 °C 25,3 °C 22,2 °C 22,2 °C 21,7 °C 20,6 °C 20,0 °C 46 % 58 % 0 lf 200 cb 200 cb 200 cb 126 cb 1017,4 hPa 0,0 l/m² 0,3 km/h (0 Bft) SW 236 ° 0 min 0,001 mm 0,0 UV-I 5 W/m² 16,2 °C 25,1 °C 1,6 km/h (1 Bft) 96,40 %
03.09.2026 18:55 25,4 °C 27,2 °C 23,9 °C 27,1 °C 27,2 °C 22,2 °C 22,2 °C 21,7 °C 20,6 °C 20,0 °C 45 % 46 % 0 lf 200 cb 200 cb 200 cb 126 cb 1017,1 hPa 0,0 l/m² 0,4 km/h (0 Bft) W-SW 255 ° 0 min 0,127 mm 0,0 UV-I 53 W/m² 14,6 °C 27,2 °C 3,2 km/h (1 Bft) 93,33 %
03.09.2026 17:55 25,4 °C 27,6 °C 26,1 °C 27,6 °C 27,6 °C 22,2 °C 22,2 °C 21,1 °C 20,6 °C 20,0 °C 44 % 44 % 0 lf 200 cb 200 cb 200 cb 125 cb 1017,1 hPa 0,0 l/m² 0,3 km/h (0 Bft) SO 145 ° 30 min 0,228 mm 0,6 UV-I 137 W/m² 14,2 °C 27,6 °C 3,2 km/h (1 Bft) 91,45 %
03.09.2026 16:55 25,3 °C 27,6 °C 26,7 °C 27,6 °C 27,6 °C 22,2 °C 22,2 °C 21,1 °C 20,0 °C 20,0 °C 44 % 45 % 0 lf 200 cb 200 cb 200 cb 125 cb 1017,7 hPa 0,0 l/m² 4,6 km/h (1 Bft) S 175 ° 60 min 0,356 mm 1,2 UV-I 258 W/m² 14,6 °C 27,6 °C 9,7 km/h (2 Bft) 94,21 %
03.09.2026 15:55 25,3 °C 27,3 °C 26,7 °C 27,3 °C 27,6 °C 22,2 °C 22,2 °C 21,1 °C 20,0 °C 20,0 °C 43 % 43 % 0 lf 200 cb 200 cb 200 cb 125 cb 1017,9 hPa 0,0 l/m² 4,7 km/h (1 Bft) NW 326 ° 55 min 0,482 mm 1,6 UV-I 272 W/m² 13,6 °C 27,3 °C 9,7 km/h (2 Bft) 96,67 %
03.09.2026 15:00 25,0 °C 27,8 °C 27,2 °C 27,8 °C 28,3 °C 22,2 °C 22,2 °C 20,6 °C 20,0 °C 20,0 °C 43 % 44 % 0 lf 200 cb 200 cb 200 cb 125 cb 1018,2 hPa 0,0 l/m² 5,5 km/h (1 Bft) W-SW 249 ° 0 min 0,482 mm 3,6 UV-I 675 W/m² 14,4 °C 27,8 °C 12,9 km/h (3 Bft) 95,00 %
_ Min-Zeit 08:45 03:20 03:10 03:20 03:20 07:30 07:30 15:00 15:00 15:00 15:00 15:15 15:00 15:00 15:00 15:00 15:00 14:45 - 19:10 - - - - - - 15:55 03:15 19:10 05:30
Minimum _ 24,9 °C 19,0 °C 17,2 °C 19,0 °C 19,1 °C 19,4 °C 19,4 °C 20,6 °C 20,0 °C 20,0 °C 43 % 42 % 0 lf 200 cb 200 cb 200 cb 125 cb 1011,8 hPa - 0,0 km/h (0 Bft) - - - - - - 13,6 °C 19,1 °C 0,0 km/h (0 Bft) 89,09 %
_ Max-Zeit 13:50 14:35 14:55 14:55 14:35 14:05 14:05 18:35 01:45 21:50 10:05 02:00 15:00 15:00 15:00 15:00 07:05 23:50 15:00 13:25 - - 15:00 14:00 13:10 15:10 14:35 14:35 12:55 02:40
Maximum _ 25,8 °C 31,7 °C 31,1 °C 31,5 °C 31,7 °C 25,6 °C 25,6 °C 21,7 °C 21,1 °C 20,6 °C 53 % 78 % 0 lf 200 cb 200 cb 200 cb 130 cb 1018,4 hPa 0,0 l/m² 9,0 km/h
NW (2 Bft)
- - 5 min 0,534 mm 4,4 UV-I 737 W/m² 19,3 °C 31,7 °C 29,0 km/h
S-SO (5 Bft)
100,00 %
Durchschnitt _ 25,3 °C 24,6 °C 23,0 °C 24,6 °C 24,8 °C 21,6 °C 21,6 °C 21,2 °C 20,5 °C 20,4 °C 48 % 60 % 0 lf 200 cb 200 cb 200 cb 128 cb 1016,7 hPa #0,0 l/m² 2,6 km/h (1 Bft) S - #6:25 h #2,337 mm 3,0 UV-I 446 W/m² 16,0 °C 24,6 °C 7,6 km/h (2 Bft) 95,47 %
copy; 2009 Dieter Kraft